Time;durP1;ratioP1;P1;durP2;ratioP2;P2;SDS_P1;SDS_P2;PMS_P1;PMS_P2;Temp;Humidity;BMP_temperature;BMP_pressure;BME280_temperature;BME280_humidity;BME280_pressure;Samples;Min_cycle;Max_cycle;Signal;HPM_P1;HPM_P2
2023/08/11 00:00:25;;;;;;;5.07;2.93;;;18.00;97.70;;;;;;5033327;28;20442;-63
2023/08/11 00:02:51;;;;;;;10.23;3.20;;;18.00;97.90;;;;;;5033298;28;20446;-63
2023/08/11 00:05:19;;;;;;;3.57;2.77;;;18.00;98.10;;;;;;5032844;28;20469;-63
2023/08/11 00:07:46;;;;;;;9.37;2.60;;;18.00;98.60;;;;;;5033121;28;20445;-62
2023/08/11 00:10:13;;;;;;;5.90;3.00;;;18.00;98.50;;;;;;5033268;28;20857;-63
2023/08/11 00:12:41;;;;;;;3.30;3.00;;;18.00;98.70;;;;;;5033371;28;20438;-63
2023/08/11 00:15:08;;;;;;;6.30;2.70;;;18.00;98.80;;;;;;5033482;28;20473;-63
2023/08/11 00:17:35;;;;;;;3.63;2.40;;;17.90;99.00;;;;;;5033414;28;20473;-63
2023/08/11 00:20:03;;;;;;;6.87;2.53;;;17.90;99.10;;;;;;5033323;28;20470;-63
2023/08/11 00:22:30;;;;;;;7.27;2.47;;;17.90;99.20;;;;;;5033285;28;20536;-63
2023/08/11 00:24:56;;;;;;;7.07;3.00;;;17.90;99.30;;;;;;5033461;28;20485;-62
2023/08/11 00:27:23;;;;;;;5.20;2.67;;;17.90;99.40;;;;;;5035010;28;20433;-63
2023/08/11 00:29:54;;;;;;;7.53;3.10;;;17.90;99.50;;;;;;5038287;28;20441;-63
2023/08/11 00:32:20;;;;;;;5.87;2.83;;;17.90;99.60;;;;;;5037120;28;20927;-64
2023/08/11 00:34:48;;;;;;;5.73;2.63;;;17.90;99.60;;;;;;5037324;28;20437;-62
2023/08/11 00:37:14;;;;;;;7.03;2.10;;;17.90;99.70;;;;;;5037518;28;20475;-62
2023/08/11 00:39:41;;;;;;;3.17;2.30;;;17.90;99.70;;;;;;5037072;28;20479;-63
2023/08/11 00:42:08;;;;;;;7.73;3.60;;;17.90;99.80;;;;;;5036612;28;20942;-63
2023/08/11 00:44:35;;;;;;;3.33;2.70;;;17.90;99.90;;;;;;5036697;28;20450;-63
2023/08/11 00:47:05;;;;;;;6.17;3.07;;;17.90;99.90;;;;;;5036615;28;20438;-62
2023/08/11 00:49:32;;;;;;;5.43;2.80;;;17.90;99.90;;;;;;5036534;28;20479;-63
2023/08/11 00:51:59;;;;;;;5.27;3.40;;;17.90;99.90;;;;;;5036347;28;20823;-62
2023/08/11 00:54:27;;;;;;;4.17;2.30;;;17.90;99.90;;;;;;5036507;28;20442;-62
2023/08/11 00:56:55;;;;;;;3.73;2.60;;;17.90;99.90;;;;;;5036941;28;20492;-63
2023/08/11 00:59:23;;;;;;;3.40;3.00;;;17.90;99.90;;;;;;5036801;28;20476;-62
2023/08/11 01:01:49;;;;;;;5.07;2.27;;;17.90;99.90;;;;;;5036645;28;20449;-63
2023/08/11 01:04:18;;;;;;;7.83;2.80;;;17.90;99.90;;;;;;5036936;28;20442;-63
2023/08/11 01:06:47;;;;;;;6.17;2.53;;;17.90;99.90;;;;;;5037207;28;20471;-63
2023/08/11 01:09:25;;;;;;;7.50;2.83;;;17.90;99.90;;;;;;5036400;28;20452;-62
2023/08/11 01:12:01;;;;;;;4.20;2.93;;;17.90;99.90;;;;;;5036362;28;20965;-62
2023/08/11 01:14:36;;;;;;;4.50;2.80;;;17.90;99.90;;;;;;5036714;28;20433;-62
2023/08/11 01:17:05;;;;;;;9.13;2.87;;;17.90;99.90;;;;;;5036559;28;20476;-62
2023/08/11 01:19:36;;;;;;;4.97;2.53;;;17.90;99.90;;;;;;5036685;28;20453;-62
2023/08/11 01:22:08;;;;;;;5.07;2.80;;;17.90;99.90;;;;;;5036317;28;20447;-62
2023/08/11 01:24:38;;;;;;;4.70;2.37;;;17.90;99.90;;;;;;5035881;28;20434;-62
2023/08/11 01:27:05;;;;;;;7.87;2.57;;;17.90;99.90;;;;;;5036057;28;20447;-62
2023/08/11 01:29:32;;;;;;;4.10;2.80;;;17.80;99.90;;;;;;5035776;28;20462;-63
2023/08/11 01:31:58;;;;;;;4.00;2.53;;;17.80;99.90;;;;;;5035732;28;20820;-63
2023/08/11 01:34:25;;;;;;;6.63;2.73;;;17.90;99.90;;;;;;5036250;28;20451;-63
2023/08/11 01:36:58;;;;;;;6.70;2.60;;;17.80;99.90;;;;;;5035733;28;20599;-63
2023/08/11 01:39:25;;;;;;;6.53;2.50;;;17.80;99.90;;;;;;5035323;28;20430;-62
2023/08/11 01:41:53;;;;;;;3.30;2.40;;;17.90;99.90;;;;;;5036597;28;20441;-61
2023/08/11 01:44:22;;;;;;;3.40;2.50;;;17.80;99.90;;;;;;5036116;28;20448;-62
2023/08/11 01:46:49;;;;;;;4.70;2.57;;;17.80;99.90;;;;;;5036640;28;20478;-62
2023/08/11 01:49:17;;;;;;;7.23;2.67;;;17.90;99.90;;;;;;5036147;28;20437;-63
2023/08/11 01:51:44;;;;;;;11.20;2.70;;;17.80;99.90;;;;;;5036623;28;20448;-63
2023/08/11 01:54:11;;;;;;;4.67;2.40;;;17.90;99.90;;;;;;5036332;28;20442;-61
2023/08/11 01:56:39;;;;;;;6.87;2.57;;;17.80;99.90;;;;;;5036001;28;20553;-63
2023/08/11 01:59:13;;;;;;;4.50;2.33;;;17.90;99.90;;;;;;5035744;28;20477;-63
2023/08/11 02:01:40;;;;;;;3.10;2.43;;;17.80;99.90;;;;;;5036282;28;20434;-63
2023/08/11 02:04:08;;;;;;;10.90;2.90;;;17.80;99.90;;;;;;5036089;28;20442;-63
2023/08/11 02:06:35;;;;;;;5.30;2.10;;;17.80;99.90;;;;;;5035202;28;20519;-63
2023/08/11 02:09:04;;;;;;;4.93;2.50;;;17.80;99.90;;;;;;5035440;28;20448;-63
2023/08/11 02:11:31;;;;;;;5.30;2.73;;;17.80;99.90;;;;;;5035284;28;20519;-64
2023/08/11 02:13:58;;;;;;;2.37;2.07;;;17.80;99.90;;;;;;5035047;28;20449;-63
2023/08/11 02:16:26;;;;;;;5.60;2.47;;;17.80;99.90;;;;;;5035021;28;20466;-63
2023/08/11 02:18:52;;;;;;;6.93;2.40;;;17.80;99.90;;;;;;5034839;28;20485;-63
2023/08/11 02:21:19;;;;;;;5.37;2.63;;;17.80;99.90;;;;;;5035187;28;20463;-63
2023/08/11 02:23:46;;;;;;;4.10;2.50;;;17.80;99.90;;;;;;5034973;28;20453;-63
2023/08/11 02:26:14;;;;;;;3.63;2.43;;;17.80;99.90;;;;;;5034824;28;20474;-63
2023/08/11 02:28:41;;;;;;;5.73;2.50;;;17.70;99.90;;;;;;5035160;28;20491;-62
2023/08/11 02:31:08;;;;;;;4.27;2.37;;;17.70;99.90;;;;;;5034800;28;20490;-63
2023/08/11 02:33:36;;;;;;;3.77;2.67;;;17.70;99.90;;;;;;5035542;28;20446;-63
2023/08/11 02:36:04;;;;;;;4.57;2.50;;;17.70;99.90;;;;;;5034348;28;20458;-62
2023/08/11 02:38:30;;;;;;;3.47;2.63;;;17.70;99.90;;;;;;5034500;28;20551;-62
2023/08/11 02:40:57;;;;;;;3.67;2.40;;;17.70;99.90;;;;;;5034998;28;20443;-63
2023/08/11 02:43:24;;;;;;;5.13;2.70;;;17.70;99.90;;;;;;5035043;28;20437;-63
2023/08/11 02:45:50;;;;;;;3.77;2.17;;;17.70;99.90;;;;;;5034264;28;20472;-63
2023/08/11 02:48:17;;;;;;;4.87;2.37;;;17.70;99.90;;;;;;5034270;28;20441;-62
2023/08/11 02:50:45;;;;;;;8.17;2.90;;;17.70;99.90;;;;;;5033193;28;20445;-62
2023/08/11 02:53:12;;;;;;;3.90;1.93;;;17.70;99.90;;;;;;5034345;28;20441;-63
2023/08/11 02:55:39;;;;;;;8.23;3.13;;;17.70;99.90;;;;;;5034353;28;20469;-63
2023/08/11 02:58:06;;;;;;;6.20;2.70;;;17.70;99.90;;;;;;5034057;28;21030;-63
2023/08/11 03:00:33;;;;;;;5.47;2.50;;;17.70;99.90;;;;;;5033849;28;20942;-63
2023/08/11 03:03:01;;;;;;;12.30;2.53;;;17.70;99.90;;;;;;5033797;28;20932;-63
2023/08/11 03:05:28;;;;;;;4.53;2.00;;;17.70;99.90;;;;;;5033999;28;20468;-63
2023/08/11 03:07:56;;;;;;;5.27;2.43;;;17.60;99.90;;;;;;5033778;28;20447;-63
2023/08/11 03:10:23;;;;;;;3.93;2.00;;;17.60;99.90;;;;;;5033748;28;20449;-62
2023/08/11 03:12:50;;;;;;;4.60;2.40;;;17.60;99.90;;;;;;5033777;28;20475;-63
2023/08/11 03:15:17;;;;;;;3.87;2.83;;;17.60;99.90;;;;;;5033735;28;20563;-62
2023/08/11 03:17:44;;;;;;;12.87;2.53;;;17.60;99.90;;;;;;5034200;28;20482;-63
2023/08/11 03:20:12;;;;;;;3.83;2.20;;;17.60;99.90;;;;;;5033791;28;20448;-62
2023/08/11 03:22:39;;;;;;;4.10;2.87;;;17.60;99.90;;;;;;5033461;28;20928;-63
2023/08/11 03:25:09;;;;;;;2.97;2.13;;;17.60;99.90;;;;;;5033797;28;20473;-63
2023/08/11 03:27:36;;;;;;;6.50;3.00;;;17.60;99.90;;;;;;5033452;28;20927;-62
2023/08/11 03:30:03;;;;;;;5.20;3.10;;;17.60;99.90;;;;;;5033871;28;20463;-62
2023/08/11 03:32:30;;;;;;;4.63;3.00;;;17.60;99.90;;;;;;5033596;28;20439;-63
2023/08/11 03:34:57;;;;;;;3.80;2.60;;;17.60;99.90;;;;;;5034107;28;20470;-63
2023/08/11 03:37:23;;;;;;;6.43;2.50;;;17.60;99.90;;;;;;5033396;28;20505;-63
2023/08/11 03:39:50;;;;;;;5.20;2.43;;;17.60;99.90;;;;;;5033560;28;20453;-62
2023/08/11 03:42:18;;;;;;;4.23;2.70;;;17.60;99.90;;;;;;5033793;28;20434;-62
2023/08/11 03:44:46;;;;;;;4.60;2.67;;;17.60;99.90;;;;;;5033621;28;20456;-62
2023/08/11 03:47:13;;;;;;;7.47;2.63;;;17.50;99.90;;;;;;5033257;28;20950;-62
2023/08/11 03:49:39;;;;;;;4.53;2.57;;;17.60;99.90;;;;;;5033068;28;20447;-63
2023/08/11 03:52:07;;;;;;;4.77;2.47;;;17.60;99.90;;;;;;5033754;28;20443;-63
2023/08/11 03:54:34;;;;;;;5.63;3.00;;;17.50;99.90;;;;;;5032994;28;21007;-63
2023/08/11 03:57:01;;;;;;;4.87;2.80;;;17.50;99.90;;;;;;5033065;28;20520;-63
2023/08/11 03:59:30;;;;;;;6.80;2.73;;;17.50;99.90;;;;;;5032944;28;20508;-63
2023/08/11 04:01:56;;;;;;;6.40;2.70;;;17.50;99.90;;;;;;5032639;28;20501;-61
2023/08/11 04:04:23;;;;;;;3.07;2.37;;;17.50;99.90;;;;;;5033066;28;20460;-62
2023/08/11 04:06:51;;;;;;;12.40;3.60;;;17.50;99.90;;;;;;5032301;28;20545;-63
2023/08/11 04:12:04;;;;;;;3.10;2.47;;;17.50;99.90;;;;;;5090385;27;20976;-64
2023/08/11 04:14:31;;;;;;;8.67;4.00;;;17.50;99.90;;;;;;5090413;28;20446;-63
2023/08/11 04:16:57;;;;;;;4.47;2.40;;;17.40;99.90;;;;;;5091734;28;20457;-62
2023/08/11 04:19:24;;;;;;;8.60;2.97;;;17.40;99.90;;;;;;5093761;28;20439;-63
2023/08/11 04:21:51;;;;;;;4.23;2.40;;;17.30;99.90;;;;;;5093136;28;20815;-62
2023/08/11 04:24:18;;;;;;;2.90;2.40;;;17.30;99.90;;;;;;5093210;28;20447;-63
2023/08/11 04:26:45;;;;;;;5.70;2.87;;;17.30;99.90;;;;;;5109259;22;20588;-60
2023/08/11 04:29:13;;;;;;;8.40;2.83;;;17.30;99.90;;;;;;5070571;28;20543;-63
2023/08/11 04:31:41;;;;;;;2.40;2.20;;;17.20;99.90;;;;;;5070490;28;20481;-63
2023/08/11 04:34:07;;;;;;;3.77;2.80;;;17.20;99.90;;;;;;5070367;28;20445;-63
2023/08/11 04:36:34;;;;;;;6.50;3.60;;;17.20;99.90;;;;;;5070398;28;20469;-61
2023/08/11 04:39:01;;;;;;;8.40;2.77;;;17.20;99.90;;;;;;5070630;28;20442;-61
2023/08/11 04:41:28;;;;;;;11.10;3.70;;;17.20;99.90;;;;;;5070447;28;20437;-61
2023/08/11 04:43:55;;;;;;;2.67;2.47;;;17.20;99.90;;;;;;5070130;28;20833;-62
2023/08/11 04:46:24;;;;;;;5.80;3.40;;;17.10;99.90;;;;;;5070307;28;20463;-61
2023/08/11 04:48:51;;;;;;;4.67;3.00;;;17.10;99.90;;;;;;5071240;28;20448;-62
2023/08/11 04:51:17;;;;;;;6.60;3.27;;;17.10;99.90;;;;;;5069938;28;20483;-61
2023/08/11 04:53:44;;;;;;;5.30;3.27;;;17.00;99.90;;;;;;5070300;28;20468;-64
2023/08/11 04:56:11;;;;;;;6.23;2.90;;;17.00;99.90;;;;;;5070376;28;20575;-63
2023/08/11 04:58:39;;;;;;;5.07;2.90;;;17.10;99.90;;;;;;5072005;28;20436;-63
2023/08/11 05:01:07;;;;;;;6.20;2.50;;;17.10;99.90;;;;;;5068848;28;20986;-63
2023/08/11 05:03:35;;;;;;;3.17;2.63;;;17.20;99.90;;;;;;5069548;28;20447;-63
2023/08/11 05:06:02;;;;;;;7.07;3.37;;;17.40;99.90;;;;;;5069423;28;20583;-62
2023/08/11 05:08:28;;;;;;;5.43;2.73;;;17.60;99.90;;;;;;5069690;28;20443;-62
2023/08/11 05:10:55;;;;;;;5.57;3.30;;;17.90;99.90;;;;;;5069497;28;20517;-62
2023/08/11 05:13:22;;;;;;;4.30;2.60;;;18.30;99.90;;;;;;5070363;28;20451;-63
2023/08/11 05:15:49;;;;;;;3.50;2.33;;;18.70;99.90;;;;;;5069118;28;20977;-62
2023/08/11 05:18:16;;;;;;;3.47;2.43;;;19.00;99.90;;;;;;5069830;28;20478;-63
2023/08/11 05:20:46;;;;;;;3.73;2.33;;;19.30;99.90;;;;;;5069270;28;20438;-64
2023/08/11 05:23:13;;;;;;;4.10;2.60;;;19.60;99.90;;;;;;5057067;28;20447;-64
2023/08/11 05:25:40;;;;;;;5.00;2.80;;;19.80;99.90;;;;;;5055242;28;20571;-63
2023/08/11 05:28:07;;;;;;;5.47;2.63;;;20.00;99.90;;;;;;5055805;28;20825;-63
2023/08/11 05:30:33;;;;;;;3.80;2.47;;;20.10;99.90;;;;;;5056152;28;20599;-64
2023/08/11 05:33:00;;;;;;;8.20;2.87;;;20.20;99.90;;;;;;5056236;28;20454;-63
2023/08/11 05:35:29;;;;;;;7.67;2.83;;;20.30;99.30;;;;;;5056188;28;20473;-64
2023/08/11 05:37:57;;;;;;;3.77;2.80;;;20.40;98.70;;;;;;5056077;28;20447;-64
2023/08/11 05:40:24;;;;;;;3.53;2.03;;;20.50;97.90;;;;;;5055906;28;20451;-64
2023/08/11 05:42:51;;;;;;;9.73;3.23;;;20.50;97.00;;;;;;5055707;28;20835;-64
2023/08/11 05:45:18;;;;;;;5.10;2.53;;;20.50;96.50;;;;;;5055455;28;20467;-64
2023/08/11 05:47:45;;;;;;;4.87;2.90;;;20.40;96.30;;;;;;5055788;28;20438;-63
2023/08/11 05:50:11;;;;;;;7.90;3.10;;;20.40;96.30;;;;;;5055584;28;20548;-63
2023/08/11 05:52:38;;;;;;;4.20;3.00;;;20.40;96.10;;;;;;5055548;28;20451;-63
2023/08/11 05:55:07;;;;;;;3.17;2.17;;;20.40;96.00;;;;;;5055140;28;20446;-64
2023/08/11 05:57:34;;;;;;;3.10;2.40;;;20.40;95.80;;;;;;5055261;28;20463;-64
2023/08/11 06:00:04;;;;;;;3.03;2.70;;;20.40;95.40;;;;;;5055632;28;20450;-64
2023/08/11 06:02:30;;;;;;;4.67;2.77;;;20.40;95.10;;;;;;5055632;28;20486;-63
2023/08/11 06:04:57;;;;;;;3.90;2.53;;;20.40;94.80;;;;;;5054813;28;20813;-64
2023/08/11 06:07:24;;;;;;;4.27;2.40;;;20.30;94.50;;;;;;5055336;28;20451;-62
2023/08/11 06:09:51;;;;;;;3.53;2.00;;;20.30;94.20;;;;;;5055447;28;20445;-63
2023/08/11 06:12:19;;;;;;;5.80;2.57;;;20.30;94.00;;;;;;5055198;28;20488;-63
2023/08/11 06:14:45;;;;;;;6.70;3.27;;;20.20;94.00;;;;;;5055133;28;20446;-63
2023/08/11 06:17:12;;;;;;;5.30;3.33;;;20.20;94.00;;;;;;5055166;28;20460;-63
2023/08/11 06:19:39;;;;;;;4.60;3.30;;;20.10;93.90;;;;;;5055007;28;20457;-62
2023/08/11 06:22:06;;;;;;;6.20;2.67;;;20.10;93.90;;;;;;5055104;28;20931;-64
2023/08/11 06:24:33;;;;;;;7.10;2.80;;;20.10;93.70;;;;;;5055205;28;20506;-63
2023/08/11 06:27:00;;;;;;;3.83;2.67;;;20.00;93.80;;;;;;5055005;28;20485;-63
2023/08/11 06:29:28;;;;;;;3.37;2.50;;;20.00;93.80;;;;;;5054170;28;20971;-63
2023/08/11 06:31:55;;;;;;;5.87;2.80;;;20.10;93.70;;;;;;5054136;28;20482;-62
2023/08/11 06:34:22;;;;;;;4.73;2.70;;;20.10;93.50;;;;;;5053488;28;20442;-62
2023/08/11 06:36:49;;;;;;;2.67;2.47;;;20.10;93.50;;;;;;5054225;28;20550;-63
2023/08/11 06:39:16;;;;;;;6.43;2.60;;;20.20;93.60;;;;;;5054282;28;20493;-62
2023/08/11 06:41:43;;;;;;;5.87;2.30;;;20.20;93.50;;;;;;5053864;28;20443;-63
2023/08/11 06:44:12;;;;;;;4.17;2.30;;;20.30;93.30;;;;;;5053838;28;20816;-63
2023/08/11 06:46:40;;;;;;;2.87;2.57;;;20.40;93.10;;;;;;5053514;28;20845;-61
2023/08/11 06:49:07;;;;;;;6.80;3.10;;;20.50;92.80;;;;;;5054532;28;20457;-63
2023/08/11 06:51:34;;;;;;;3.43;2.47;;;20.60;92.60;;;;;;5053849;28;20491;-63
2023/08/11 06:54:01;;;;;;;3.53;2.10;;;20.60;92.40;;;;;;5054579;28;20526;-63
2023/08/11 06:56:28;;;;;;;3.47;2.80;;;20.70;92.30;;;;;;5053982;28;20467;-62
2023/08/11 06:58:54;;;;;;;4.77;2.63;;;20.80;92.10;;;;;;5054284;28;20455;-63
2023/08/11 07:01:21;;;;;;;5.43;2.47;;;20.90;92.00;;;;;;5054264;28;20439;-63
2023/08/11 07:03:51;;;;;;;5.20;2.00;;;21.00;91.70;;;;;;5053870;28;20923;-63
2023/08/11 07:06:18;;;;;;;4.60;2.60;;;21.10;91.50;;;;;;5054424;28;20465;-62
2023/08/11 07:08:44;;;;;;;6.33;2.73;;;21.10;91.30;;;;;;5054345;28;20523;-63
2023/08/11 07:11:11;;;;;;;4.30;2.60;;;21.20;91.20;;;;;;5053900;28;20566;-63
2023/08/11 07:13:38;;;;;;;2.40;2.20;;;21.20;91.00;;;;;;5053850;28;20452;-63
2023/08/11 07:16:06;;;;;;;3.13;2.47;;;21.30;90.80;;;;;;5053925;28;20476;-63
2023/08/11 07:18:33;;;;;;;3.00;2.20;;;21.40;90.60;;;;;;5053948;28;20451;-63
2023/08/11 07:21:01;;;;;;;4.13;3.53;;;21.40;90.40;;;;;;5054018;28;20440;-63
2023/08/11 07:23:28;;;;;;;4.43;3.73;;;21.50;90.20;;;;;;5053807;28;20516;-64
2023/08/11 07:25:54;;;;;;;4.37;2.60;;;21.60;89.90;;;;;;5053697;28;20491;-64
2023/08/11 07:28:21;;;;;;;5.37;2.70;;;21.70;89.10;;;;;;5055147;28;20451;-64
2023/08/11 07:30:48;;;;;;;3.30;2.10;;;21.80;88.50;;;;;;5054705;28;20445;-63
2023/08/11 07:33:15;;;;;;;3.77;2.20;;;21.90;88.00;;;;;;5054770;28;21045;-63
2023/08/11 07:35:41;;;;;;;3.00;2.43;;;22.00;87.20;;;;;;5054911;28;20518;-63
2023/08/11 07:38:09;;;;;;;2.77;2.20;;;22.10;86.50;;;;;;5056118;28;20441;-64
2023/08/11 07:40:36;;;;;;;6.33;2.10;;;22.30;85.50;;;;;;5055629;28;20449;-62
2023/08/11 07:43:04;;;;;;;5.40;2.57;;;22.40;84.40;;;;;;5054537;28;20473;-63
2023/08/11 07:45:32;;;;;;;4.90;2.30;;;22.40;83.50;;;;;;5053131;28;20457;-65
2023/08/11 07:47:59;;;;;;;2.93;2.27;;;22.40;82.90;;;;;;5054507;28;20450;-64
2023/08/11 07:50:26;;;;;;;6.17;2.53;;;22.50;82.50;;;;;;5053587;28;20818;-64
2023/08/11 07:52:53;;;;;;;3.33;2.10;;;22.50;82.00;;;;;;5052999;28;20486;-63
2023/08/11 07:55:21;;;;;;;5.07;2.57;;;22.60;81.20;;;;;;5052549;28;20863;-63
2023/08/11 07:57:48;;;;;;;6.33;2.40;;;22.60;80.50;;;;;;5052642;28;20812;-63
2023/08/11 08:00:16;;;;;;;3.40;1.70;;;22.70;79.90;;;;;;5052929;28;20454;-63
2023/08/11 08:02:44;;;;;;;3.73;2.07;;;22.90;79.00;;;;;;5052633;28;20540;-63
2023/08/11 08:05:11;;;;;;;2.47;1.83;;;23.00;77.80;;;;;;5053300;28;20466;-62
2023/08/11 08:07:38;;;;;;;1.90;1.80;;;23.20;76.80;;;;;;5053480;28;20440;-63
2023/08/11 08:10:08;;;;;;;4.07;2.27;;;23.20;76.10;;;;;;5053263;28;20440;-63
2023/08/11 08:12:37;;;;;;;6.03;2.63;;;23.20;75.50;;;;;;5053176;28;20480;-63
2023/08/11 08:15:04;;;;;;;3.60;2.63;;;23.40;74.70;;;;;;5052770;28;20883;-64
2023/08/11 08:17:32;;;;;;;3.33;2.30;;;23.50;73.80;;;;;;5053077;28;20448;-63
2023/08/11 08:19:58;;;;;;;4.00;2.10;;;23.60;72.70;;;;;;5052547;28;20934;-63
2023/08/11 08:22:25;;;;;;;4.40;2.07;;;23.70;71.70;;;;;;5052665;28;20913;-64
2023/08/11 08:24:52;;;;;;;2.07;1.90;;;23.80;70.80;;;;;;5053068;28;20448;-63
2023/08/11 08:27:24;;;;;;;2.10;1.90;;;23.90;69.80;;;;;;5052608;28;20945;-63
2023/08/11 08:29:52;;;;;;;2.70;2.03;;;23.90;68.80;;;;;;5052526;28;20967;-64
2023/08/11 08:32:19;;;;;;;1.73;1.40;;;24.00;68.00;;;;;;5053014;28;20479;-63
2023/08/11 08:34:47;;;;;;;2.23;1.87;;;24.10;67.20;;;;;;5052721;28;20450;-62
2023/08/11 08:37:14;;;;;;;2.50;2.30;;;24.20;66.60;;;;;;5052721;28;20470;-63
2023/08/11 08:39:41;;;;;;;2.23;1.60;;;24.20;65.90;;;;;;5054598;28;20462;-65
2023/08/11 08:42:08;;;;;;;3.37;1.60;;;24.30;65.10;;;;;;5053524;28;20432;-63
2023/08/11 08:44:36;;;;;;;2.17;1.53;;;24.20;64.50;;;;;;5053863;28;20443;-64
2023/08/11 08:47:05;;;;;;;1.97;1.50;;;24.10;64.60;;;;;;5053241;28;20537;-63
2023/08/11 08:49:33;;;;;;;1.67;1.53;;;24.10;64.20;;;;;;5052834;28;20451;-64
2023/08/11 08:52:00;;;;;;;2.37;1.97;;;24.30;63.40;;;;;;5052982;28;20475;-63
2023/08/11 08:54:28;;;;;;;1.50;1.20;;;24.30;62.60;;;;;;5054355;28;20471;-64
2023/08/11 08:56:55;;;;;;;1.93;1.80;;;24.40;62.20;;;;;;5054588;28;20537;-65
2023/08/11 08:59:24;;;;;;;3.20;1.30;;;24.60;61.90;;;;;;5058089;28;20448;-64
2023/08/11 09:01:51;;;;;;;2.67;1.43;;;24.70;61.50;;;;;;5056631;28;20440;-65
2023/08/11 09:04:22;;;;;;;1.70;1.40;;;24.90;60.90;;;;;;5056950;28;20444;-64
2023/08/11 09:06:49;;;;;;;1.57;1.20;;;25.00;60.20;;;;;;5058643;28;20456;-64
2023/08/11 09:09:16;;;;;;;2.30;1.27;;;25.10;59.80;;;;;;5057350;28;20470;-65
2023/08/11 09:11:43;;;;;;;1.83;1.10;;;25.10;59.00;;;;;;5056959;28;20488;-64
2023/08/11 09:14:11;;;;;;;1.73;1.00;;;25.10;58.90;;;;;;5056983;28;20436;-62
2023/08/11 09:16:38;;;;;;;1.37;1.23;;;25.10;58.60;;;;;;5057418;28;20476;-63
2023/08/11 09:19:07;;;;;;;1.20;1.10;;;25.20;58.10;;;;;;5056181;28;20538;-64
2023/08/11 09:21:35;;;;;;;1.57;1.10;;;25.30;57.70;;;;;;5056165;28;20444;-64
2023/08/11 09:24:03;;;;;;;1.33;1.10;;;25.40;57.20;;;;;;5056781;28;20448;-62
2023/08/11 09:26:30;;;;;;;1.60;1.37;;;25.50;56.60;;;;;;5055738;28;20861;-63
2023/08/11 09:28:57;;;;;;;1.10;0.90;;;25.60;56.30;;;;;;5056688;28;20440;-63
2023/08/11 09:31:24;;;;;;;1.07;0.90;;;25.70;56.00;;;;;;5056255;28;20444;-64
2023/08/11 09:33:52;;;;;;;3.60;1.17;;;25.70;55.60;;;;;;5059578;28;20498;-62
2023/08/11 09:36:20;;;;;;;1.77;1.00;;;25.70;55.70;;;;;;5060683;28;20496;-63
2023/08/11 09:38:49;;;;;;;3.73;1.43;;;25.60;55.80;;;;;;5059045;28;20455;-64
2023/08/11 09:41:17;;;;;;;1.80;1.60;;;25.70;56.10;;;;;;5055785;28;20474;-65
2023/08/11 09:43:47;;;;;;;2.77;1.40;;;25.80;55.80;;;;;;5055730;28;20478;-63
2023/08/11 09:46:14;;;;;;;1.80;1.70;;;25.90;55.40;;;;;;5055765;28;20456;-64
2023/08/11 09:48:41;;;;;;;1.43;1.30;;;26.00;54.90;;;;;;5056232;28;20796;-63
2023/08/11 09:51:10;;;;;;;1.70;1.40;;;26.10;54.70;;;;;;5055542;28;20509;-65
2023/08/11 09:53:39;;;;;;;1.80;1.00;;;26.20;54.60;;;;;;5055335;28;20480;-63
2023/08/11 09:56:10;;;;;;;1.87;1.10;;;26.30;54.20;;;;;;5055950;28;21042;-65
2023/08/11 09:58:40;;;;;;;1.50;1.10;;;26.40;53.80;;;;;;5055582;28;20428;-64
2023/08/11 10:01:09;;;;;;;1.40;1.10;;;26.50;53.50;;;;;;5054880;28;20941;-64
2023/08/11 10:03:41;;;;;;;1.80;1.50;;;26.50;53.10;;;;;;5054963;28;20727;-64
2023/08/11 10:06:11;;;;;;;2.60;2.10;;;26.60;53.10;;;;;;5055097;28;20471;-64
2023/08/11 10:08:38;;;;;;;2.90;1.80;;;26.70;53.00;;;;;;5054565;28;20440;-63
2023/08/11 10:11:08;;;;;;;1.60;1.33;;;26.80;52.70;;;;;;5055626;28;20540;-67
2023/08/11 10:13:37;;;;;;;1.40;1.10;;;26.90;52.50;;;;;;5055890;28;20547;-65
2023/08/11 10:16:04;;;;;;;2.50;1.70;;;27.00;52.50;;;;;;5055867;28;20521;-63
2023/08/11 10:18:32;;;;;;;1.40;1.30;;;27.10;52.50;;;;;;5055816;28;20527;-64
2023/08/11 10:21:00;;;;;;;2.03;1.30;;;27.20;52.40;;;;;;5056196;28;20448;-65
2023/08/11 10:23:28;;;;;;;3.57;1.70;;;27.10;52.20;;;;;;5055208;28;20440;-64
2023/08/11 10:25:56;;;;;;;2.23;1.70;;;27.10;52.10;;;;;;5076054;22;20510;-64
2023/08/11 10:28:24;;;;;;;2.03;1.67;;;27.20;52.00;;;;;;5079977;28;20447;-64
2023/08/11 10:30:58;;;;;;;1.50;1.20;;;27.20;51.80;;;;;;5078771;28;20443;-64
2023/08/11 10:33:29;;;;;;;3.10;1.60;;;27.30;51.70;;;;;;5077281;28;20478;-64
2023/08/11 10:35:58;;;;;;;1.93;1.67;;;27.40;51.50;;;;;;5077594;28;20489;-63
2023/08/11 10:38:26;;;;;;;2.07;1.67;;;27.40;51.40;;;;;;5075814;28;20447;-64
2023/08/11 10:40:59;;;;;;;2.97;1.70;;;27.50;51.40;;;;;;5076508;28;20446;-63
2023/08/11 10:43:32;;;;;;;4.60;2.30;;;27.40;51.50;;;;;;5075977;28;20415;-64
2023/08/11 10:46:16;;;;;;;3.70;1.80;;;27.30;51.80;;;;;;5076100;28;20533;-64
2023/08/11 10:48:43;;;;;;;1.90;1.60;;;27.40;51.80;;;;;;5075913;28;20466;-64
2023/08/11 10:51:27;;;;;;;7.00;1.77;;;27.50;51.70;;;;;;5075150;28;20447;-64
2023/08/11 10:53:56;;;;;;;3.73;1.83;;;27.50;51.80;;;;;;5077609;28;20484;-64
2023/08/11 10:56:31;;;;;;;2.50;1.57;;;27.60;51.90;;;;;;5074734;28;20540;-63
2023/08/11 10:59:13;;;;;;;2.17;1.83;;;27.60;51.70;;;;;;5075647;28;20439;-62
2023/08/11 11:01:41;;;;;;;1.97;1.60;;;27.70;51.50;;;;;;5075603;28;20827;-63
2023/08/11 11:04:09;;;;;;;2.80;1.63;;;27.80;51.40;;;;;;5075245;28;20441;-63
2023/08/11 11:06:37;;;;;;;3.57;1.90;;;27.90;51.20;;;;;;5075184;28;20463;-63
2023/08/11 11:09:04;;;;;;;2.10;1.90;;;27.80;51.00;;;;;;5075393;28;20466;-66
2023/08/11 11:11:32;;;;;;;2.43;1.70;;;27.80;51.10;;;;;;5074993;28;20447;-64
2023/08/11 11:13:59;;;;;;;2.60;2.10;;;27.80;51.00;;;;;;5075131;28;20562;-63
2023/08/11 11:16:28;;;;;;;2.43;1.70;;;27.90;50.80;;;;;;5075115;28;20458;-64
2023/08/11 11:18:54;;;;;;;2.70;1.90;;;27.90;50.50;;;;;;5075369;28;20447;-64
2023/08/11 11:21:21;;;;;;;3.10;1.93;;;27.90;50.60;;;;;;5074310;28;20439;-64
2023/08/11 11:23:50;;;;;;;4.80;1.90;;;27.90;50.70;;;;;;5075347;28;20439;-65
2023/08/11 11:26:22;;;;;;;2.50;1.70;;;27.80;50.70;;;;;;5074726;28;20588;-64
2023/08/11 11:28:49;;;;;;;2.13;1.50;;;27.90;51.30;;;;;;5074770;28;20423;-64
2023/08/11 11:31:16;;;;;;;3.83;1.63;;;28.00;50.70;;;;;;5074827;28;20454;-66
2023/08/11 11:33:45;;;;;;;2.53;1.80;;;28.00;50.60;;;;;;5074688;28;20883;-64
2023/08/11 11:36:12;;;;;;;2.60;1.90;;;28.00;50.60;;;;;;5074083;28;20463;-64
2023/08/11 11:38:40;;;;;;;1.77;1.23;;;28.00;50.60;;;;;;5074917;28;20469;-65
2023/08/11 11:41:10;;;;;;;3.40;1.50;;;28.20;50.60;;;;;;5075015;28;20808;-64
2023/08/11 11:43:37;;;;;;;8.10;1.90;;;28.20;50.20;;;;;;5075417;28;20523;-63
2023/08/11 11:46:11;;;;;;;2.00;1.80;;;28.30;50.40;;;;;;5075043;28;20459;-63
2023/08/11 11:48:38;;;;;;;2.40;2.20;;;28.40;50.40;;;;;;5075178;28;20446;-64
2023/08/11 11:51:06;;;;;;;3.30;2.07;;;28.50;50.10;;;;;;5075289;28;20439;-65
2023/08/11 11:53:34;;;;;;;2.97;2.30;;;28.70;49.80;;;;;;5074306;28;20848;-64
2023/08/11 11:56:03;;;;;;;3.17;2.03;;;29.00;49.30;;;;;;5074220;28;20463;-64
2023/08/11 11:58:29;;;;;;;3.17;1.90;;;29.50;48.60;;;;;;5075215;28;20462;-64
2023/08/11 12:00:56;;;;;;;1.80;1.67;;;30.20;47.70;;;;;;5075003;28;20449;-64
2023/08/11 12:03:23;;;;;;;2.20;1.80;;;30.70;46.50;;;;;;5075139;28;20511;-66
2023/08/11 12:05:53;;;;;;;2.23;1.80;;;31.20;45.50;;;;;;5074966;28;20471;-64
2023/08/11 12:08:24;;;;;;;3.33;2.13;;;31.50;44.90;;;;;;5075109;28;20514;-64
2023/08/11 12:10:52;;;;;;;4.63;2.70;;;31.80;44.40;;;;;;5075675;28;20443;-63
2023/08/11 12:13:18;;;;;;;2.50;1.90;;;32.00;44.20;;;;;;5075141;28;20489;-64
2023/08/11 12:15:48;;;;;;;3.97;1.83;;;32.30;43.80;;;;;;5074897;28;20553;-64
2023/08/11 12:18:15;;;;;;;3.97;1.90;;;32.50;43.20;;;;;;5075671;28;20242;-64
2023/08/11 12:20:42;;;;;;;3.93;1.80;;;32.70;43.10;;;;;;5075165;28;20439;-64
2023/08/11 12:23:09;;;;;;;2.90;1.73;;;32.80;42.60;;;;;;5074767;28;20431;-64
2023/08/11 12:25:37;;;;;;;2.10;1.90;;;32.80;42.40;;;;;;5076097;28;20463;-64
2023/08/11 12:28:04;;;;;;;2.10;1.90;;;32.90;42.30;;;;;;5079161;28;20445;-64
2023/08/11 12:30:31;;;;;;;3.53;1.83;;;33.10;42.20;;;;;;5076254;28;20504;-64
2023/08/11 12:32:57;;;;;;;2.50;1.67;;;33.10;42.00;;;;;;5076695;28;20485;-63
2023/08/11 12:35:24;;;;;;;2.70;2.00;;;32.90;42.30;;;;;;5079108;28;20449;-64
2023/08/11 12:37:52;;;;;;;2.60;1.73;;;32.60;42.70;;;;;;5077363;28;20817;-64
2023/08/11 12:40:18;;;;;;;4.30;2.00;;;31.90;43.20;;;;;;5078188;28;20441;-65
2023/08/11 12:42:46;;;;;;;2.57;2.37;;;31.30;44.20;;;;;;5077850;28;20522;-64
2023/08/11 12:45:13;;;;;;;5.40;2.83;;;30.70;45.20;;;;;;5077955;28;20449;-63
2023/08/11 12:47:40;;;;;;;4.57;2.00;;;30.30;45.80;;;;;;5078436;28;20443;-63
2023/08/11 12:50:08;;;;;;;3.00;2.03;;;30.00;46.50;;;;;;5078666;28;20439;-64